Puvirnituq, Canada
Current Conditions -  °F | °C
As of 5:00 AM on Sunday 23 Nov 2014 (Local Time) from CYPX Reporting Station
Light Snow Light Snow  
Wind Chill: -16°   Ceiling: 13000
Heat Index:   Visibility: 9mi
Dew Point: -2°   Wind: 13mph
Humidity: 85%   Direction: 90°E
Pressure: 29.42"   Gusts: NA
Location:  60.03°N, 77.28°W
Report Text: CYPX 231000Z AUTO 09011KT 9SM -SN OVC130 M17/M19 A2942 RMK SLP965
Loading
Personal Weather Stations






























Interactive Weather Map New forecast layout! Learn more

10-Day Weather Forecast

Advertisements
Track Severe Weather on mobile